Portada
METAR-TAF:

METAR-TAF

Aeroports :

Fort Smith, Arkansas, Estats Units d'Amèrica

latitud: 35-20-01N, longitud: 094-21-54W, altitud: 142 m

Observació

L'informe es va fer fa 1 hora i 5 minuts, a les 12:53 UTC
Vent calma
Temperatura 4°C
Humitat 100%
Pressió 1014 hPa
Cel clar

METAR: KFSM 181253Z 00000KT CLR 04/04 A2995 RMK AO2 SLP143 T00390039 $

Hora: 07:58 (13:58 UTC)

Pronòstic

L'informe es va fer fa 2 hores i 19 minuts, a les 11:39 UTC
Pronòstic vàlid del 18 a les 12 UTC al 19 a les 12 UTC
Vent 3 kt amb direcció variable
Visibilitat: 10 km
Cel ennuvolat a una alçada de 25000 ft
A partir de les 18 a les 1600 UTC
Vent 7 kt del Oest/Sud-Oest
Visibilitat: 10 km
Cel ennuvolat a una alçada de 10000 ft
A partir de les 19 a les 0300 UTC
Vent 3 kt del Oest
Visibilitat: 10 km
Cel clar

TAF: KFSM 181139Z 1812/1912 VRB03KT P6SM BKN250 FM181600 24007KT P6SM BKN100 FM190300 27003KT P6SM SKC

Observacions i pronòstics meteorològics de més de 4000 aeroports (METAR i TAF).

Les estacions disponibles són els punts grocs i vermells al mapa.

Posi el ratolí al punt desitjat per veure el nom de l'estació.

Feu clic per veure les observacions i els pronòstics meteorològics.

Per canviar el mapa: feu clic els botons verds amb una creu de color negre per apropar; al botó verd amb un guió per allunyar la imatge; o en les fletxes verdes per a mapes adjacents.


METAR-TAF: